Time;durP1;ratioP1;P1;durP2;ratioP2;P2;SDS_P1;SDS_P2;PMS_P1;PMS_P2;Temp;Humidity;BMP_temperature;BMP_pressure;BME280_temperature;BME280_humidity;BME280_pressure;Samples;Min_cycle;Max_cycle;Signal;HPM_P1;HPM_P2
2022/05/25 00:01:35;;;;;;;;;;;;;;;15.06;74.27;100957.72;5106519;27;19938;-80
2022/05/25 00:04:01;;;;;;;;;;;;;;;15.05;74.15;100955.19;5132640;27;19957;-79
2022/05/25 00:06:26;;;;;;;;;;;;;;;15.03;74.51;100958.09;5119733;27;19927;-79
2022/05/25 00:08:52;;;;;;;;;;;;;;;14.99;74.61;100963.00;5112918;27;20344;-82
2022/05/25 00:11:17;;;;;;;;;;;;;;;14.99;74.60;100956.78;5140392;27;19928;-79
2022/05/25 00:13:44;;;;;;;;;;;;;;;15.04;74.02;100964.34;5113261;28;19912;-79
2022/05/25 00:16:09;;;;;;;;;;;;;;;15.03;74.01;100968.06;5136871;27;19976;-79
2022/05/25 00:18:36;;;;;;;;;;;;;;;15.04;74.35;100973.31;5131518;28;19923;-81
2022/05/25 00:21:01;;;;;;;;;;;;;;;15.05;73.87;100961.44;5118599;27;19958;-81
2022/05/25 00:23:27;;;;;;;;;;;;;;;15.02;73.99;100960.97;5116363;28;19931;-80
2022/05/25 00:25:53;;;;;;;;;;;;;;;14.99;74.23;100962.19;5135739;27;19919;-79
2022/05/25 00:28:20;;;;;;;;;;;;;;;14.99;73.90;100963.00;5151716;27;19915;-80
2022/05/25 00:30:50;;;;;;;;;;;;;;;14.92;74.22;100958.53;5127710;27;19966;-80
2022/05/25 00:33:17;;;;;;;;;;;;;;;14.94;73.56;100959.19;5130950;27;20327;-79
2022/05/25 00:35:42;;;;;;;;;;;;;;;14.95;73.26;100958.16;5118381;28;20154;-80
2022/05/25 00:38:07;;;;;;;;;;;;;;;14.93;72.97;100958.31;5106538;28;20496;-78
2022/05/25 00:40:34;;;;;;;;;;;;;;;14.87;72.82;100961.78;5113288;28;20303;-80
2022/05/25 00:43:01;;;;;;;;;;;;;;;14.78;73.16;100950.16;5130665;27;19927;-79
2022/05/25 00:45:26;;;;;;;;;;;;;;;14.73;72.80;100963.41;5118707;27;19923;-78
2022/05/25 00:47:54;;;;;;;;;;;;;;;14.67;73.15;100957.88;5132435;27;19923;-80
2022/05/25 00:50:21;;;;;;;;;;;;;;;14.61;73.91;100964.00;5140902;27;19955;-80
2022/05/25 00:52:47;;;;;;;;;;;;;;;14.60;73.63;100956.91;5117788;27;19911;-80
2022/05/25 00:55:17;;;;;;;;;;;;;;;14.64;73.38;100964.47;5116367;27;19919;-79
2022/05/25 00:57:43;;;;;;;;;;;;;;;14.59;73.55;100961.47;5114406;27;19974;-80
2022/05/25 01:00:10;;;;;;;;;;;;;;;14.62;73.14;100965.69;5143209;27;19912;-81
2022/05/25 01:02:38;;;;;;;;;;;;;;;14.57;73.21;100953.53;5130564;27;19929;-80
2022/05/25 01:05:03;;;;;;;;;;;;;;;14.55;73.36;100954.75;5149016;27;19915;-79
2022/05/25 01:07:32;;;;;;;;;;;;;;;14.55;73.24;100954.75;5124191;27;19919;-80
2022/05/25 01:10:30;;;;;;;;;;;;;;;14.45;73.58;100964.94;5122183;27;19922;-79
2022/05/25 01:13:15;;;;;;;;;;;;;;;14.44;73.74;100961.34;5128207;27;20005;-80
2022/05/25 01:15:46;;;;;;;;;;;;;;;14.45;73.59;100965.75;5145616;27;19930;-80
2022/05/25 01:18:17;;;;;;;;;;;;;;;14.38;73.82;100959.38;5117844;27;19916;-80
2022/05/25 01:20:46;;;;;;;;;;;;;;;14.39;73.98;100961.06;5124494;27;20010;-80
2022/05/25 01:23:31;;;;;;;;;;;;;;;14.36;74.31;100953.31;5134485;27;19919;-81
2022/05/25 01:25:59;;;;;;;;;;;;;;;14.38;73.87;100958.56;5146308;27;19919;-78
2022/05/25 01:28:44;;;;;;;;;;;;;;;14.38;73.68;100956.69;5114172;28;19924;-78
2022/05/25 01:31:11;;;;;;;;;;;;;;;14.34;73.99;100952.66;5139818;27;19919;-78
2022/05/25 01:33:42;;;;;;;;;;;;;;;14.29;74.31;100947.78;5135020;27;20398;-78
2022/05/25 01:36:23;;;;;;;;;;;;;;;14.32;74.35;100957.38;5124455;27;19926;-82
2022/05/25 01:38:48;;;;;;;;;;;;;;;14.34;73.76;100961.59;5121936;27;19927;-82
2022/05/25 01:41:20;;;;;;;;;;;;;;;14.28;74.20;100969.56;5142337;27;19920;-79
2022/05/25 01:44:14;;;;;;;;;;;;;;;14.24;74.07;100969.09;5106912;27;20006;-78
2022/05/25 01:46:41;;;;;;;;;;;;;;;14.20;74.52;100972.34;5137621;27;20010;-80
2022/05/25 01:49:11;;;;;;;;;;;;;;;14.21;74.67;100966.75;5134507;27;19922;-78
2022/05/25 01:51:48;;;;;;;;;;;;;;;14.21;74.55;100963.19;5125476;27;19915;-79
2022/05/25 01:54:28;;;;;;;;;;;;;;;14.24;74.54;100965.56;5118759;27;19923;-80
2022/05/25 01:56:57;;;;;;;;;;;;;;;14.20;74.37;100967.75;5139658;27;19912;-80
2022/05/25 01:59:24;;;;;;;;;;;;;;;14.21;73.96;100966.75;5135510;27;20298;-81
2022/05/25 02:04:44;;;;;;;;;;;;;;;14.21;74.61;100974.88;5138197;27;19930;-80
2022/05/25 02:07:32;;;;;;;;;;;;;;;14.22;74.66;100964.91;5143180;27;19915;-79
2022/05/25 02:10:00;;;;;;;;;;;;;;;14.23;74.39;100967.41;5151222;27;19927;-80
2022/05/25 02:12:46;;;;;;;;;;;;;;;14.23;74.68;100974.69;5132787;27;20067;-81
2022/05/25 02:15:31;;;;;;;;;;;;;;;14.19;75.12;100981.44;5115719;27;20789;-79
2022/05/25 02:18:00;;;;;;;;;;;;;;;14.18;75.21;100982.47;5133311;27;19926;-77
2022/05/25 02:20:31;;;;;;;;;;;;;;;14.19;75.36;100986.84;5139257;27;20015;-78
2022/05/25 02:22:58;;;;;;;;;;;;;;;14.21;75.10;100984.81;5131859;27;19922;-79
2022/05/25 02:25:25;;;;;;;;;;;;;;;14.20;75.57;100988.56;5126718;27;19919;-80
2022/05/25 02:27:52;;;;;;;;;;;;;;;14.18;75.47;100983.31;5119614;27;19933;-79
2022/05/25 02:30:18;;;;;;;;;;;;;;;14.18;75.55;100988.72;5116487;27;20023;-79
2022/05/25 02:32:58;;;;;;;;;;;;;;;14.17;75.87;100991.63;5112081;27;20001;-79
2022/05/25 02:35:23;;;;;;;;;;;;;;;14.18;75.80;100985.19;5112143;27;19972;-80
2022/05/25 02:37:50;;;;;;;;;;;;;;;14.22;76.22;100992.78;5119165;27;19920;-79
2022/05/25 02:40:16;;;;;;;;;;;;;;;14.22;76.22;100995.47;5120332;27;19923;-83
2022/05/25 02:42:43;;;;;;;;;;;;;;;14.19;76.33;100993.13;5114215;27;19967;-79
2022/05/25 02:45:10;;;;;;;;;;;;;;;14.24;76.57;100993.44;5118072;27;20010;-79
2022/05/25 02:47:39;;;;;;;;;;;;;;;14.26;76.17;100993.28;5116654;27;20291;-79
2022/05/25 02:50:05;;;;;;;;;;;;;;;14.24;76.34;101003.41;5140371;27;20383;-78
2022/05/25 02:52:31;;;;;;;;;;;;;;;14.24;75.90;101000.72;5141001;27;20071;-79
2022/05/25 02:54:57;;;;;;;;;;;;;;;14.27;75.77;100994.94;5134581;27;19968;-80
2022/05/25 02:57:23;;;;;;;;;;;;;;;14.33;75.69;100996.94;5101497;28;19920;-80
2022/05/25 02:59:50;;;;;;;;;;;;;;;14.28;76.36;100999.31;5106911;27;19923;-79
2022/05/25 03:02:15;;;;;;;;;;;;;;;14.33;75.82;100999.66;5116462;27;19942;-78
2022/05/25 03:04:43;;;;;;;;;;;;;;;14.37;75.53;101006.38;5116746;27;20801;-78
2022/05/25 03:07:11;;;;;;;;;;;;;;;14.33;76.84;101010.47;5130462;27;19919;-79
2022/05/25 03:09:37;;;;;;;;;;;;;;;14.23;76.71;101015.25;5136857;27;19919;-79
2022/05/25 03:12:04;;;;;;;;;;;;;;;14.35;76.20;101014.69;5135612;27;20381;-79
2022/05/25 03:14:30;;;;;;;;;;;;;;;14.44;75.72;101020.03;5117417;27;20269;-79
2022/05/25 03:16:55;;;;;;;;;;;;;;;14.51;76.29;101018.31;5153713;27;19954;-78
2022/05/25 03:19:20;;;;;;;;;;;;;;;14.48;77.22;101029.50;5159647;27;20048;-80
2022/05/25 03:21:49;;;;;;;;;;;;;;;14.58;77.22;101016.59;5123713;27;19980;-79
2022/05/25 03:24:15;;;;;;;;;;;;;;;14.57;77.02;101031.16;5126229;27;19927;-80
2022/05/25 03:26:41;;;;;;;;;;;;;;;14.65;76.65;101038.38;5114227;27;20371;-79
2022/05/25 03:29:11;;;;;;;;;;;;;;;14.73;76.29;101032.94;5134274;27;19919;-78
2022/05/25 03:31:36;;;;;;;;;;;;;;;14.82;76.06;101036.41;5149195;27;19915;-79
2022/05/25 03:34:02;;;;;;;;;;;;;;;14.85;75.75;101034.19;5110644;27;19919;-80
2022/05/25 03:36:28;;;;;;;;;;;;;;;14.95;75.41;101042.91;5141203;27;20010;-79
2022/05/25 03:38:53;;;;;;;;;;;;;;;15.01;74.99;101037.78;5112626;27;19994;-80
2022/05/25 03:41:20;;;;;;;;;;;;;;;15.09;74.74;101048.56;5118156;27;20026;-79
2022/05/25 03:43:48;;;;;;;;;;;;;;;15.15;74.76;101045.16;5114142;27;19956;-79
2022/05/25 03:46:13;;;;;;;;;;;;;;;15.24;74.47;101046.78;5096579;27;20379;-80
2022/05/25 03:48:42;;;;;;;;;;;;;;;15.30;74.27;101039.78;5128750;27;19926;-79
2022/05/25 03:51:08;;;;;;;;;;;;;;;15.37;74.39;101035.31;5128319;27;19919;-79
2022/05/25 03:53:35;;;;;;;;;;;;;;;15.44;73.78;101046.25;5085736;28;20011;-79
2022/05/25 03:56:00;;;;;;;;;;;;;;;15.49;73.76;101049.25;5126471;27;19924;-79
2022/05/25 03:58:27;;;;;;;;;;;;;;;15.56;74.05;101050.19;5117361;27;19926;-80
2022/05/25 04:00:52;;;;;;;;;;;;;;;15.53;74.39;101056.84;5101857;27;19945;-82
2022/05/25 04:03:18;;;;;;;;;;;;;;;15.61;74.44;101047.78;5115824;27;19919;-80
2022/05/25 04:05:43;;;;;;;;;;;;;;;15.71;74.03;101051.09;5118837;27;19987;-82
2022/05/25 04:08:09;;;;;;;;;;;;;;;15.86;74.18;101050.28;5132188;27;20406;-80
2022/05/25 04:10:35;;;;;;;;;;;;;;;16.02;73.75;101050.09;5119197;27;20391;-80
2022/05/25 04:13:01;;;;;;;;;;;;;;;16.26;73.36;101051.66;5134704;27;19916;-78
2022/05/25 04:15:27;;;;;;;;;;;;;;;16.36;73.20;101062.22;5131789;27;19919;-79
2022/05/25 04:17:54;;;;;;;;;;;;;;;16.42;72.75;101053.31;5109228;28;19926;-81
2022/05/25 04:20:19;;;;;;;;;;;;;;;16.55;72.32;101058.06;5115363;27;19920;-80
2022/05/25 04:22:45;;;;;;;;;;;;;;;16.64;71.77;101057.75;5116207;28;19928;-79
2022/05/25 04:25:12;;;;;;;;;;;;;;;16.73;71.80;101058.50;5115234;27;19930;-78
2022/05/25 04:27:41;;;;;;;;;;;;;;;16.85;71.13;101062.41;5131660;27;19977;-81
2022/05/25 04:30:07;;;;;;;;;;;;;;;17.04;70.67;101057.38;5126494;27;19919;-79
2022/05/25 04:32:32;;;;;;;;;;;;;;;17.37;69.45;101060.41;5098194;28;20006;-78
2022/05/25 04:34:58;;;;;;;;;;;;;;;17.50;69.54;101054.25;5118846;27;20374;-80
2022/05/25 04:40:11;;;;;;;;;;;;;;;17.93;67.69;101065.03;5113023;27;20337;-79
2022/05/25 04:42:37;;;;;;;;;;;;;;;18.27;66.96;101058.75;5122241;27;19965;-80
2022/05/25 04:45:05;;;;;;;;;;;;;;;18.40;65.72;101065.28;5120837;27;19963;-83
2022/05/25 04:47:34;;;;;;;;;;;;;;;18.52;66.11;101071.84;5122667;27;20006;-83
2022/05/25 04:50:00;;;;;;;;;;;;;;;18.77;64.61;101072.97;5121750;27;20418;-80
2022/05/25 04:52:28;;;;;;;;;;;;;;;18.82;64.02;101069.66;5124538;27;19926;-82
2022/05/25 04:54:53;;;;;;;;;;;;;;;18.76;64.02;101070.47;5120016;27;20458;-80
2022/05/25 04:57:27;;;;;;;;;;;;;;;18.97;63.80;101081.22;5120553;27;19998;-81
2022/05/25 05:00:07;;;;;;;;;;;;;;;19.25;63.46;101085.69;5134985;27;19920;-79
2022/05/25 05:02:33;;;;;;;;;;;;;;;19.60;62.07;101080.03;5123422;27;19927;-81
2022/05/25 05:04:58;;;;;;;;;;;;;;;19.80;61.12;101088.22;5120193;27;19953;-80
2022/05/25 05:07:32;;;;;;;;;;;;;;;20.09;59.62;101088.78;5128512;27;19923;-77
2022/05/25 05:09:59;;;;;;;;;;;;;;;20.18;58.41;101084.78;5132148;27;19968;-80
2022/05/25 05:12:26;;;;;;;;;;;;;;;20.38;57.67;101085.56;5129167;27;19958;-77
2022/05/25 05:14:52;;;;;;;;;;;;;;;20.48;57.60;101085.13;5110397;28;19924;-86
2022/05/25 05:17:17;;;;;;;;;;;;;;;20.05;58.03;101095.75;5136914;27;19923;-82
2022/05/25 05:19:43;;;;;;;;;;;;;;;20.22;57.59;101096.97;5138532;27;19923;-87
2022/05/25 05:22:09;;;;;;;;;;;;;;;20.52;57.42;101110.94;5148240;27;20013;-83
2022/05/25 05:24:34;;;;;;;;;;;;;;;20.42;56.30;101111.41;5153567;27;20314;-84
2022/05/25 05:27:00;;;;;;;;;;;;;;;20.57;56.67;101121.25;5128696;27;19920;-81
2022/05/25 05:29:28;;;;;;;;;;;;;;;20.69;55.61;101111.31;5138974;27;19919;-83
2022/05/25 05:31:53;;;;;;;;;;;;;;;20.76;56.42;101117.59;5127960;27;19915;-84
2022/05/25 05:34:19;;;;;;;;;;;;;;;21.11;55.02;101117.19;5147364;27;19926;-82
2022/05/25 05:36:52;;;;;;;;;;;;;;;20.77;55.60;101126.66;5149331;27;20438;-86
2022/05/25 05:39:18;;;;;;;;;;;;;;;20.71;56.19;101133.81;5130267;27;19919;-84
2022/05/25 05:41:50;;;;;;;;;;;;;;;20.77;56.04;101132.94;5126751;27;19919;-83
2022/05/25 05:44:20;;;;;;;;;;;;;;;20.72;56.46;101124.56;5120677;27;19955;-83
2022/05/25 05:46:46;;;;;;;;;;;;;;;21.31;55.21;101130.75;5135036;27;19938;-82
2022/05/25 05:49:15;;;;;;;;;;;;;;;21.28;55.65;101118.38;5137931;27;20018;-89
2022/05/25 05:51:40;;;;;;;;;;;;;;;21.60;54.70;101121.09;5130900;27;19920;-84
2022/05/25 05:54:06;;;;;;;;;;;;;;;22.17;53.48;101123.72;5093616;27;20371;-85
2022/05/25 05:56:34;;;;;;;;;;;;;;;22.74;51.69;101126.28;5128690;27;20000;-88
2022/05/25 05:59:02;;;;;;;;;;;;;;;23.13;50.04;101126.81;5103836;27;19973;-87
2022/05/25 06:01:30;;;;;;;;;;;;;;;22.99;50.20;101128.06;5106126;27;19930;-86
2022/05/25 06:03:55;;;;;;;;;;;;;;;22.74;49.85;101131.75;5134207;27;19919;-89
2022/05/25 06:06:23;;;;;;;;;;;;;;;22.83;49.41;101135.84;5116097;27;19931;-85
2022/05/25 06:08:56;;;;;;;;;;;;;;;22.60;49.18;101139.31;5127196;27;20310;-84
2022/05/25 06:11:42;;;;;;;;;;;;;;;23.03;49.10;101145.75;5114836;27;19919;-84
2022/05/25 06:14:18;;;;;;;;;;;;;;;23.39;48.29;101134.66;5124561;27;19919;-86
2022/05/25 06:19:29;;;;;;;;;;;;;;;22.89;49.54;101148.63;5117922;27;19930;-84
2022/05/25 06:21:55;;;;;;;;;;;;;;;22.86;49.87;101151.84;5121078;27;20122;-83
2022/05/25 06:24:21;;;;;;;;;;;;;;;22.79;50.83;101140.13;5127137;27;19927;-84
2022/05/25 06:26:51;;;;;;;;;;;;;;;22.85;50.39;101149.31;5113578;27;20724;-82
2022/05/25 06:29:17;;;;;;;;;;;;;;;22.93;50.14;101152.59;5133781;27;20303;-81
2022/05/25 06:31:43;;;;;;;;;;;;;;;22.25;52.44;101156.34;5145632;27;19999;-83
2022/05/25 06:34:10;;;;;;;;;;;;;;;22.42;52.06;101153.00;5124289;27;19976;-84
2022/05/25 06:36:36;;;;;;;;;;;;;;;22.29;51.82;101157.56;5105896;28;20396;-86
2022/05/25 06:39:02;;;;;;;;;;;;;;;22.23;53.32;101166.66;5102381;27;19969;-87
2022/05/25 06:41:29;;;;;;;;;;;;;;;22.42;52.52;101167.53;5106428;27;19930;-88
2022/05/25 06:43:57;;;;;;;;;;;;;;;22.08;53.08;101169.75;5155252;27;19918;-85
2022/05/25 06:46:27;;;;;;;;;;;;;;;21.80;55.05;101163.91;5123163;27;20422;-85
2022/05/25 06:48:53;;;;;;;;;;;;;;;22.44;51.82;101178.28;5129897;27;19915;-88
2022/05/25 06:51:23;;;;;;;;;;;;;;;22.64;52.06;101175.28;5140671;27;19923;-86
2022/05/25 06:53:49;;;;;;;;;;;;;;;22.97;51.32;101170.25;5111259;28;20007;-88
2022/05/25 06:56:17;;;;;;;;;;;;;;;23.39;50.23;101172.25;5135891;27;19923;-84
2022/05/25 06:58:43;;;;;;;;;;;;;;;22.71;50.14;101176.06;5115124;27;20010;-86
2022/05/25 07:04:12;;;;;;;;;;;;;;;22.59;50.98;101172.41;5117211;28;19963;-89
2022/05/25 07:06:38;;;;;;;;;;;;;;;22.72;50.75;101175.00;5103592;27;19920;-88
2022/05/25 07:12:07;;;;;;;;;;;;;;;23.43;49.95;101180.84;5142738;27;19922;-89
2022/05/25 07:14:37;;;;;;;;;;;;;;;23.70;49.52;101184.84;5113350;27;19955;-89
2022/05/25 07:17:03;;;;;;;;;;;;;;;23.95;48.54;101184.69;5152980;27;19995;-90
2022/05/25 07:19:42;;;;;;;;;;;;;;;23.51;49.82;101184.09;5117239;27;20442;-92
2022/05/25 07:22:08;;;;;;;;;;;;;;;23.23;49.84;101179.22;5122629;27;19915;-91
2022/05/25 07:24:43;;;;;;;;;;;;;;;22.57;51.78;101183.63;5122461;27;19919;-91
2022/05/25 07:27:08;;;;;;;;;;;;;;;22.63;52.14;101190.06;5122664;27;19934;-92
2022/05/25 07:29:35;;;;;;;;;;;;;;;22.70;52.07;101191.66;5120687;27;19978;-86
2022/05/25 07:32:06;;;;;;;;;;;;;;;22.96;51.21;101187.75;5096362;28;19962;-87
2022/05/25 07:34:38;;;;;;;;;;;;;;;23.30;50.89;101193.69;5117409;27;19919;-91
2022/05/25 07:37:10;;;;;;;;;;;;;;;23.84;48.20;101191.00;5141106;27;19911;-86
2022/05/25 07:39:39;;;;;;;;;;;;;;;24.17;46.97;101184.09;5136593;27;19919;-89
2022/05/25 07:42:05;;;;;;;;;;;;;;;23.77;48.62;101191.09;5128795;27;19919;-85
2022/05/25 07:44:33;;;;;;;;;;;;;;;23.34;49.82;101192.16;5095097;27;19923;-85
2022/05/25 07:46:59;;;;;;;;;;;;;;;23.39;49.37;101196.94;5111678;27;19923;-81
2022/05/25 07:49:27;;;;;;;;;;;;;;;23.22;50.03;101199.47;5133323;27;20231;-83
2022/05/25 07:52:01;;;;;;;;;;;;;;;22.65;51.47;101209.88;5139191;27;19980;-91
2022/05/25 07:54:27;;;;;;;;;;;;;;;22.65;49.58;101209.88;5144011;27;19942;-88
2022/05/25 07:56:55;;;;;;;;;;;;;;;23.09;49.79;101210.66;5128339;27;19920;-92
2022/05/25 07:59:23;;;;;;;;;;;;;;;23.54;49.98;101207.47;5121459;27;20260;-91
2022/05/25 08:07:23;;;;;;;;;;;;;;;22.80;51.34;101218.53;5138624;27;19995;-87
2022/05/25 08:09:48;;;;;;;;;;;;;;;22.43;51.80;101224.00;5119147;27;19929;-90
2022/05/25 08:12:17;;;;;;;;;;;;;;;22.53;51.53;101226.22;5125126;27;20010;-89
2022/05/25 08:14:42;;;;;;;;;;;;;;;22.77;51.30;101229.97;5098654;27;20410;-89
2022/05/25 08:17:11;;;;;;;;;;;;;;;22.80;51.04;101234.16;5126064;28;19919;-88
2022/05/25 08:19:38;;;;;;;;;;;;;;;23.41;50.17;101241.41;5116003;27;20018;-88
2022/05/25 08:22:04;;;;;;;;;;;;;;;24.08;47.97;101241.28;5125409;27;20298;-88
2022/05/25 08:24:32;;;;;;;;;;;;;;;24.10;47.81;101232.81;5135326;27;19923;-88
2022/05/25 08:26:59;;;;;;;;;;;;;;;23.95;48.27;101241.50;5135963;27;19923;-89
2022/05/25 08:29:25;;;;;;;;;;;;;;;23.97;47.50;101242.09;5099154;27;19956;-90
2022/05/25 08:31:55;;;;;;;;;;;;;;;23.94;47.74;101245.34;5105406;28;20325;-89
2022/05/25 08:34:21;;;;;;;;;;;;;;;24.11;48.38;101246.31;5080853;27;19926;-90
2022/05/25 08:36:47;;;;;;;;;;;;;;;24.00;48.62;101247.16;5129281;27;19971;-88
2022/05/25 08:39:16;;;;;;;;;;;;;;;24.21;47.78;101252.06;5137340;27;20033;-88
2022/05/25 08:41:45;;;;;;;;;;;;;;;24.66;46.97;101247.09;5153653;27;19998;-87
2022/05/25 08:44:10;;;;;;;;;;;;;;;24.62;47.33;101255.78;5119792;27;19963;-89
2022/05/25 08:46:37;;;;;;;;;;;;;;;25.02;46.12;101260.50;5120384;27;19915;-89
2022/05/25 08:49:03;;;;;;;;;;;;;;;24.87;46.25;101260.19;5118103;27;20288;-90
2022/05/25 08:51:29;;;;;;;;;;;;;;;24.64;46.48;101256.41;5137631;28;19955;-87
2022/05/25 08:54:00;;;;;;;;;;;;;;;24.83;45.86;101270.00;5111380;28;19915;-88
2022/05/25 08:56:37;;;;;;;;;;;;;;;25.27;45.55;101260.25;5134556;27;19915;-86
2022/05/25 08:59:09;;;;;;;;;;;;;;;25.82;43.49;101256.03;5122053;28;20335;-88
2022/05/25 09:01:42;;;;;;;;;;;;;;;26.06;43.50;101261.47;5119407;28;19916;-96
2022/05/25 09:04:16;;;;;;;;;;;;;;;26.55;42.25;101264.47;5085348;27;20061;-89
2022/05/25 09:06:54;;;;;;;;;;;;;;;25.57;43.69;101267.44;5150370;27;19987;-89
2022/05/25 09:09:20;;;;;;;;;;;;;;;25.69;43.55;101261.88;5118568;27;19935;-89
2022/05/25 09:11:47;;;;;;;;;;;;;;;25.40;44.69;101264.66;5147677;27;19930;-89
2022/05/25 09:14:18;;;;;;;;;;;;;;;26.29;42.83;101255.78;5120719;27;19915;-89
2022/05/25 09:16:43;;;;;;;;;;;;;;;27.08;41.30;101260.22;5110504;28;20369;-90
2022/05/25 09:19:10;;;;;;;;;;;;;;;27.29;40.35;101257.75;5084583;27;20000;-87
2022/05/25 09:21:41;;;;;;;;;;;;;;;27.57;39.83;101263.03;5111490;27;19926;-89
2022/05/25 09:24:12;;;;;;;;;;;;;;;28.29;39.26;101260.94;5120809;27;19919;-89
2022/05/25 09:26:42;;;;;;;;;;;;;;;29.13;36.95;101253.75;5102964;27;20307;-88
2022/05/25 09:29:10;;;;;;;;;;;;;;;29.43;36.35;101261.31;5100822;27;20365;-89
2022/05/25 09:31:40;;;;;;;;;;;;;;;29.14;36.04;101266.47;5140079;27;19915;-88
2022/05/25 09:34:08;;;;;;;;;;;;;;;29.70;35.47;101254.75;5138791;27;20326;-89
2022/05/25 09:36:47;;;;;;;;;;;;;;;30.00;34.83;101251.16;5135051;27;20264;-89
2022/05/25 09:39:15;;;;;;;;;;;;;;;29.71;35.63;101252.78;5120396;27;19915;-92
2022/05/25 09:41:42;;;;;;;;;;;;;;;29.49;35.65;101253.00;5106892;27;19969;-90
2022/05/25 09:44:08;;;;;;;;;;;;;;;30.21;34.68;101248.38;5112951;27;19927;-89
2022/05/25 09:46:45;;;;;;;;;;;;;;;30.36;34.14;101253.94;5107679;28;19964;-89
2022/05/25 09:49:16;;;;;;;;;;;;;;;28.61;37.52;101246.25;5096187;28;19928;-88
2022/05/25 09:51:51;;;;;;;;;;;;;;;29.82;35.03;101254.47;5098417;28;20304;-91
2022/05/25 09:54:26;;;;;;;;;;;;;;;29.54;35.58;101247.47;5117334;27;20011;-90
2022/05/25 09:56:58;;;;;;;;;;;;;;;29.09;36.15;101247.06;5156631;27;19911;-89
2022/05/25 09:59:26;;;;;;;;;;;;;;;29.97;35.03;101251.72;5154591;27;20151;-89
2022/05/25 10:01:52;;;;;;;;;;;;;;;29.30;35.51;101253.50;5137563;27;19900;-87
2022/05/25 10:04:51;;;;;;;;;;;;;;;28.07;38.02;101243.63;5123617;27;19919;-91
2022/05/25 10:07:38;;;;;;;;;;;;;;;27.33;39.42;101253.38;5137591;27;19927;-89
2022/05/25 10:10:05;;;;;;;;;;;;;;;27.85;37.61;101252.84;5144926;27;19922;-91
2022/05/25 10:12:32;;;;;;;;;;;;;;;28.67;37.33;101241.59;5139162;27;19915;-91
2022/05/25 10:15:02;;;;;;;;;;;;;;;29.07;36.64;101237.34;5134009;27;19924;-93
2022/05/25 10:17:32;;;;;;;;;;;;;;;29.10;36.25;101247.91;5100085;27;19931;-90
2022/05/25 10:20:01;;;;;;;;;;;;;;;28.15;37.30;101243.16;5132797;27;20097;-91
2022/05/25 10:22:44;;;;;;;;;;;;;;;28.39;37.17;101238.88;5101839;28;20025;-89
2022/05/25 10:25:40;;;;;;;;;;;;;;;27.82;38.60;101256.09;5109359;27;19940;-89
2022/05/25 10:28:24;;;;;;;;;;;;;;;26.55;40.79;101247.94;5138104;27;19916;-91
2022/05/25 10:39:15;;;;;;;;;;;;;;;29.22;36.02;101229.97;5119681;27;20248;-90
2022/05/25 10:41:43;;;;;;;;;;;;;;;27.26;39.98;101233.44;5126302;27;19915;-90
2022/05/25 10:44:16;;;;;;;;;;;;;;;26.90;40.82;101235.69;5119917;27;19919;-88
2022/05/25 10:46:46;;;;;;;;;;;;;;;27.17;40.73;101233.84;5098906;28;20418;-89
2022/05/25 10:49:21;;;;;;;;;;;;;;;26.85;41.20;101241.97;5103061;27;19926;-90
2022/05/25 10:51:48;;;;;;;;;;;;;;;26.52;41.72;101234.59;5127591;27;19919;-89
2022/05/25 10:57:20;;;;;;;;;;;;;;;25.50;43.76;101236.47;5121131;28;19938;-89
2022/05/25 10:59:50;;;;;;;;;;;;;;;24.86;45.76;101239.25;5099235;27;19916;-90
2022/05/25 11:02:34;;;;;;;;;;;;;;;25.04;45.35;101230.84;5117094;27;19911;-89
2022/05/25 11:05:09;;;;;;;;;;;;;;;25.51;44.96;101227.13;5151323;27;19933;-89
2022/05/25 11:07:38;;;;;;;;;;;;;;;25.38;44.88;101228.28;5096508;28;19924;-90
2022/05/25 11:10:26;;;;;;;;;;;;;;;26.05;43.53;101223.97;5115359;27;19930;-88
2022/05/25 11:13:11;;;;;;;;;;;;;;;25.88;43.77;101224.78;5135990;27;20242;-92
2022/05/25 11:15:52;;;;;;;;;;;;;;;24.95;45.32;101226.81;5147552;27;19941;-87
2022/05/25 11:18:22;;;;;;;;;;;;;;;25.20;45.62;101232.03;5138695;27;19930;-89
2022/05/25 11:21:06;;;;;;;;;;;;;;;24.79;45.71;101233.88;5118810;27;19984;-89
2022/05/25 11:23:53;;;;;;;;;;;;;;;23.85;48.34;101238.50;5119180;28;19916;-88
2022/05/25 11:26:41;;;;;;;;;;;;;;;23.09;50.57;101249.88;5091919;27;19927;-88
2022/05/25 11:29:09;;;;;;;;;;;;;;;23.34;50.57;101249.75;5153870;27;19919;-89
2022/05/25 11:31:48;;;;;;;;;;;;;;;22.74;51.51;101249.63;5132522;27;19970;-90
2022/05/25 11:34:19;;;;;;;;;;;;;;;22.51;52.56;101253.84;5115097;27;19964;-89
2022/05/25 11:37:03;;;;;;;;;;;;;;;22.95;51.31;101257.38;5133539;27;19925;-86
2022/05/25 11:39:41;;;;;;;;;;;;;;;22.33;52.50;101249.16;5100470;27;19943;-89
2022/05/25 11:42:25;;;;;;;;;;;;;;;22.76;51.72;101244.75;5129082;27;19926;-88
2022/05/25 11:45:03;;;;;;;;;;;;;;;22.53;52.36;101246.22;5135853;27;19922;-89
2022/05/25 11:47:37;;;;;;;;;;;;;;;23.03;51.27;101250.78;5077662;28;19985;-88
2022/05/25 11:50:08;;;;;;;;;;;;;;;23.11;50.81;101249.66;5105234;27;19915;-89
2022/05/25 11:53:12;;;;;;;;;;;;;;;22.81;50.83;101252.28;5124758;27;19926;-89
2022/05/25 11:55:53;;;;;;;;;;;;;;;22.64;52.02;101244.66;5043453;28;19955;-88
2022/05/25 11:58:36;;;;;;;;;;;;;;;23.07;50.59;101237.47;5043614;28;19943;-88
2022/05/25 12:01:18;;;;;;;;;;;;;;;22.94;50.77;101230.19;5035200;28;19921;-88
2022/05/25 12:03:54;;;;;;;;;;;;;;;22.74;50.56;101227.69;5032730;28;20415;-88
2022/05/25 12:06:40;;;;;;;;;;;;;;;22.43;51.09;101232.22;5078801;27;19949;-86
2022/05/25 12:09:12;;;;;;;;;;;;;;;22.34;52.10;101226.19;5135919;27;20375;-88
2022/05/25 12:11:37;;;;;;;;;;;;;;;22.36;51.80;101227.84;5109233;28;19919;-87
2022/05/25 12:14:23;;;;;;;;;;;;;;;22.43;52.01;101226.75;5118670;27;20431;-91
2022/05/25 12:16:49;;;;;;;;;;;;;;;21.74;52.84;101224.97;5096779;27;19919;-91
2022/05/25 12:25:16;;;;;;;;;;;;;;;21.48;54.38;101232.28;5047359;28;20355;-95
2022/05/25 12:28:09;;;;;;;;;;;;;;;21.33;54.04;101224.34;5179783;22;20020;-95
2022/05/25 12:30:58;;;;;;;;;;;;;;;21.21;54.99;101229.69;5963059;22;21466;-91
2022/05/25 12:33:24;;;;;;;;;;;;;;;20.84;56.22;101221.19;5035245;28;19979;-85
2022/05/25 12:35:53;;;;;;;;;;;;;;;21.16;55.98;101214.97;5031035;28;19917;-92
2022/05/25 12:38:21;;;;;;;;;;;;;;;21.41;55.18;101220.56;5031441;28;20350;-91
2022/05/25 12:40:50;;;;;;;;;;;;;;;21.63;54.41;101226.50;5036152;28;19928;-91
2022/05/25 12:43:34;;;;;;;;;;;;;;;21.23;55.12;101229.44;5035199;28;19939;-90
2022/05/25 12:49:01;;;;;;;;;;;;;;;20.71;57.33;101221.22;5016092;28;19932;-91
2022/05/25 12:51:32;;;;;;;;;;;;;;;20.31;57.91;101218.53;5043982;28;19922;-87
2022/05/25 12:53:59;;;;;;;;;;;;;;;20.19;58.15;101218.34;5040233;28;19928;-93
2022/05/25 12:56:48;;;;;;;;;;;;;;;20.14;57.91;101206.41;5060004;28;19916;-90
2022/05/25 12:59:44;;;;;;;;;;;;;;;19.91;58.31;101210.38;5038297;28;20384;-95
2022/05/25 13:02:29;;;;;;;;;;;;;;;20.34;57.89;101220.84;5046827;28;19920;-92
2022/05/25 13:05:32;;;;;;;;;;;;;;;20.17;57.83;101203.22;5147427;22;19995;-94
2022/05/25 13:08:05;;;;;;;;;;;;;;;19.78;59.22;101202.16;5050549;28;19913;-93
2022/05/25 13:10:36;;;;;;;;;;;;;;;19.89;59.50;101212.47;5036191;28;19913;-90
2022/05/25 13:13:32;;;;;;;;;;;;;;;20.29;58.60;101207.00;5063396;22;19913;-92
2022/05/25 13:16:02;;;;;;;;;;;;;;;20.65;57.63;101206.53;5049677;28;19973;-89
2022/05/25 13:18:43;;;;;;;;;;;;;;;20.70;57.39;101210.50;5029785;28;19933;-90
2022/05/25 13:21:13;;;;;;;;;;;;;;;20.58;57.57;101205.72;5026972;28;20033;-91
2022/05/25 13:23:56;;;;;;;;;;;;;;;20.12;58.16;101205.75;5050991;28;19931;-90
2022/05/25 13:26:32;;;;;;;;;;;;;;;20.13;58.72;101201.97;5025871;28;19925;-85
2022/05/25 13:28:59;;;;;;;;;;;;;;;20.02;59.35;101198.00;5031801;28;19921;-83
2022/05/25 13:31:34;;;;;;;;;;;;;;;19.89;59.72;101198.00;5029329;28;20016;-84
2022/05/25 13:34:07;;;;;;;;;;;;;;;20.09;59.00;101196.09;5033661;28;19964;-84